sensor_id;sensor_type;location;lat;lon;timestamp;temperature;humidity
38325;DHT22;24126;52.672;13.622;2023-04-25T00:00:36;14.30;63.20
38325;DHT22;24126;52.672;13.622;2023-04-25T00:03:03;14.30;63.30
38325;DHT22;24126;52.672;13.622;2023-04-25T00:05:31;14.30;63.40
38325;DHT22;24126;52.672;13.622;2023-04-25T00:07:58;14.30;63.40
38325;DHT22;24126;52.672;13.622;2023-04-25T00:10:25;14.30;63.40
38325;DHT22;24126;52.672;13.622;2023-04-25T00:12:52;14.30;63.90
38325;DHT22;24126;52.672;13.622;2023-04-25T00:15:19;14.30;63.30
38325;DHT22;24126;52.672;13.622;2023-04-25T00:17:47;14.30;63.30
38325;DHT22;24126;52.672;13.622;2023-04-25T00:20:14;14.30;63.10
38325;DHT22;24126;52.672;13.622;2023-04-25T00:22:42;14.20;63.00
38325;DHT22;24126;52.672;13.622;2023-04-25T00:25:09;14.20;62.90
38325;DHT22;24126;52.672;13.622;2023-04-25T00:27:36;14.20;63.00
38325;DHT22;24126;52.672;13.622;2023-04-25T00:30:05;14.20;63.00
38325;DHT22;24126;52.672;13.622;2023-04-25T00:32:32;14.20;62.80
38325;DHT22;24126;52.672;13.622;2023-04-25T00:34:59;14.10;62.70
38325;DHT22;24126;52.672;13.622;2023-04-25T00:37:26;14.10;62.80
38325;DHT22;24126;52.672;13.622;2023-04-25T00:39:53;14.10;62.70
38325;DHT22;24126;52.672;13.622;2023-04-25T00:42:21;14.10;62.70
38325;DHT22;24126;52.672;13.622;2023-04-25T00:44:49;14.10;62.80
38325;DHT22;24126;52.672;13.622;2023-04-25T00:47:17;14.10;62.70
38325;DHT22;24126;52.672;13.622;2023-04-25T00:49:44;14.00;62.50
38325;DHT22;24126;52.672;13.622;2023-04-25T00:52:11;14.00;62.70
38325;DHT22;24126;52.672;13.622;2023-04-25T00:54:39;14.00;62.70
38325;DHT22;24126;52.672;13.622;2023-04-25T00:57:06;14.00;62.70
38325;DHT22;24126;52.672;13.622;2023-04-25T00:59:33;13.90;62.60
38325;DHT22;24126;52.672;13.622;2023-04-25T01:02:00;13.90;62.60
38325;DHT22;24126;52.672;13.622;2023-04-25T01:04:27;13.90;62.80
38325;DHT22;24126;52.672;13.622;2023-04-25T01:06:55;13.90;62.90
38325;DHT22;24126;52.672;13.622;2023-04-25T01:09:22;13.90;62.70
38325;DHT22;24126;52.672;13.622;2023-04-25T01:11:49;14.00;62.80
38325;DHT22;24126;52.672;13.622;2023-04-25T01:14:16;13.90;62.40
38325;DHT22;24126;52.672;13.622;2023-04-25T01:16:43;13.90;62.60
38325;DHT22;24126;52.672;13.622;2023-04-25T01:19:11;14.00;62.60
38325;DHT22;24126;52.672;13.622;2023-04-25T01:21:38;14.00;62.40
38325;DHT22;24126;52.672;13.622;2023-04-25T01:24:05;14.00;62.50
38325;DHT22;24126;52.672;13.622;2023-04-25T01:26:33;14.00;62.50
38325;DHT22;24126;52.672;13.622;2023-04-25T01:29:00;14.00;62.50
38325;DHT22;24126;52.672;13.622;2023-04-25T01:31:27;14.00;62.30
38325;DHT22;24126;52.672;13.622;2023-04-25T01:33:55;14.00;62.40
38325;DHT22;24126;52.672;13.622;2023-04-25T01:36:22;14.00;62.30
38325;DHT22;24126;52.672;13.622;2023-04-25T01:38:49;14.00;62.40
38325;DHT22;24126;52.672;13.622;2023-04-25T01:41:16;14.00;62.30
38325;DHT22;24126;52.672;13.622;2023-04-25T01:43:44;14.00;62.50
38325;DHT22;24126;52.672;13.622;2023-04-25T01:46:11;14.10;62.20
38325;DHT22;24126;52.672;13.622;2023-04-25T01:48:38;14.00;62.20
38325;DHT22;24126;52.672;13.622;2023-04-25T01:51:06;14.00;62.30
38325;DHT22;24126;52.672;13.622;2023-04-25T01:53:33;14.00;62.20
38325;DHT22;24126;52.672;13.622;2023-04-25T01:56:02;14.00;62.30
38325;DHT22;24126;52.672;13.622;2023-04-25T01:58:33;14.00;62.30
38325;DHT22;24126;52.672;13.622;2023-04-25T02:01:03;14.00;62.20
38325;DHT22;24126;52.672;13.622;2023-04-25T02:03:37;14.00;62.20
38325;DHT22;24126;52.672;13.622;2023-04-25T02:06:08;14.00;62.20
38325;DHT22;24126;52.672;13.622;2023-04-25T02:08:38;14.00;62.30
38325;DHT22;24126;52.672;13.622;2023-04-25T02:11:05;14.00;62.30
38325;DHT22;24126;52.672;13.622;2023-04-25T02:13:40;14.00;62.30
38325;DHT22;24126;52.672;13.622;2023-04-25T02:16:16;14.00;62.10
38325;DHT22;24126;52.672;13.622;2023-04-25T02:18:44;14.00;62.20
38325;DHT22;24126;52.672;13.622;2023-04-25T02:21:11;14.00;62.30
38325;DHT22;24126;52.672;13.622;2023-04-25T02:23:38;14.00;62.20
38325;DHT22;24126;52.672;13.622;2023-04-25T02:26:05;14.00;62.30
38325;DHT22;24126;52.672;13.622;2023-04-25T02:28:33;14.00;62.20
38325;DHT22;24126;52.672;13.622;2023-04-25T02:31:04;14.00;62.30
38325;DHT22;24126;52.672;13.622;2023-04-25T02:33:31;14.00;62.40
38325;DHT22;24126;52.672;13.622;2023-04-25T02:35:58;14.00;62.20
38325;DHT22;24126;52.672;13.622;2023-04-25T02:38:25;14.00;62.30
38325;DHT22;24126;52.672;13.622;2023-04-25T02:40:52;14.00;62.20
38325;DHT22;24126;52.672;13.622;2023-04-25T02:43:19;14.00;62.30
38325;DHT22;24126;52.672;13.622;2023-04-25T02:45:46;14.00;62.40
38325;DHT22;24126;52.672;13.622;2023-04-25T02:48:13;14.00;62.50
38325;DHT22;24126;52.672;13.622;2023-04-25T02:50:40;14.00;62.60
38325;DHT22;24126;52.672;13.622;2023-04-25T02:53:08;14.00;62.50
38325;DHT22;24126;52.672;13.622;2023-04-25T02:55:42;14.00;62.50
38325;DHT22;24126;52.672;13.622;2023-04-25T02:58:10;14.00;62.50
38325;DHT22;24126;52.672;13.622;2023-04-25T03:00:43;14.00;62.70
38325;DHT22;24126;52.672;13.622;2023-04-25T03:03:10;14.00;62.90
38325;DHT22;24126;52.672;13.622;2023-04-25T03:05:37;14.00;62.80
38325;DHT22;24126;52.672;13.622;2023-04-25T03:08:05;14.00;62.80
38325;DHT22;24126;52.672;13.622;2023-04-25T03:10:33;14.00;62.80
38325;DHT22;24126;52.672;13.622;2023-04-25T03:13:04;14.00;62.60
38325;DHT22;24126;52.672;13.622;2023-04-25T03:15:31;13.90;62.50
38325;DHT22;24126;52.672;13.622;2023-04-25T03:17:58;13.90;62.70
38325;DHT22;24126;52.672;13.622;2023-04-25T03:20:25;13.90;62.80
38325;DHT22;24126;52.672;13.622;2023-04-25T03:22:52;13.90;62.80
38325;DHT22;24126;52.672;13.622;2023-04-25T03:25:19;13.90;62.90
38325;DHT22;24126;52.672;13.622;2023-04-25T03:27:46;13.90;63.00
38325;DHT22;24126;52.672;13.622;2023-04-25T03:30:13;13.90;63.00
38325;DHT22;24126;52.672;13.622;2023-04-25T03:32:42;13.90;62.90
38325;DHT22;24126;52.672;13.622;2023-04-25T03:35:09;13.90;62.90
38325;DHT22;24126;52.672;13.622;2023-04-25T03:37:36;13.90;62.90
38325;DHT22;24126;52.672;13.622;2023-04-25T03:40:03;13.90;63.00
38325;DHT22;24126;52.672;13.622;2023-04-25T03:42:51;13.90;63.00
38325;DHT22;24126;52.672;13.622;2023-04-25T03:45:18;13.90;63.00
38325;DHT22;24126;52.672;13.622;2023-04-25T03:47:47;13.90;62.90
38325;DHT22;24126;52.672;13.622;2023-04-25T03:50:14;13.90;63.10
38325;DHT22;24126;52.672;13.622;2023-04-25T03:52:41;13.90;63.20
38325;DHT22;24126;52.672;13.622;2023-04-25T03:55:08;13.90;63.30
38325;DHT22;24126;52.672;13.622;2023-04-25T03:57:36;13.90;63.30
38325;DHT22;24126;52.672;13.622;2023-04-25T04:00:03;13.90;63.30
38325;DHT22;24126;52.672;13.622;2023-04-25T04:02:39;13.90;63.40
38325;DHT22;24126;52.672;13.622;2023-04-25T04:05:07;13.90;63.20
38325;DHT22;24126;52.672;13.622;2023-04-25T04:07:37;13.90;63.30
38325;DHT22;24126;52.672;13.622;2023-04-25T04:10:07;13.90;63.30
38325;DHT22;24126;52.672;13.622;2023-04-25T04:12:37;13.90;63.40
38325;DHT22;24126;52.672;13.622;2023-04-25T04:15:04;13.90;63.30
38325;DHT22;24126;52.672;13.622;2023-04-25T04:17:33;13.80;63.40
38325;DHT22;24126;52.672;13.622;2023-04-25T04:20:00;13.80;63.40
38325;DHT22;24126;52.672;13.622;2023-04-25T04:22:30;13.80;63.40
38325;DHT22;24126;52.672;13.622;2023-04-25T04:25:01;13.80;63.50
38325;DHT22;24126;52.672;13.622;2023-04-25T04:27:48;13.80;63.70
38325;DHT22;24126;52.672;13.622;2023-04-25T04:30:39;13.80;63.70
38325;DHT22;24126;52.672;13.622;2023-04-25T04:33:08;13.80;63.80
38325;DHT22;24126;52.672;13.622;2023-04-25T04:35:35;13.80;63.70
38325;DHT22;24126;52.672;13.622;2023-04-25T04:38:03;13.80;63.50
38325;DHT22;24126;52.672;13.622;2023-04-25T04:40:36;13.80;63.50
38325;DHT22;24126;52.672;13.622;2023-04-25T04:43:09;13.80;63.60
38325;DHT22;24126;52.672;13.622;2023-04-25T04:45:49;13.80;63.60
38325;DHT22;24126;52.672;13.622;2023-04-25T04:48:19;13.80;63.70
38325;DHT22;24126;52.672;13.622;2023-04-25T04:50:58;13.80;63.80
38325;DHT22;24126;52.672;13.622;2023-04-25T04:53:44;13.80;63.80
38325;DHT22;24126;52.672;13.622;2023-04-25T04:56:30;13.90;63.70
38325;DHT22;24126;52.672;13.622;2023-04-25T04:59:16;13.90;63.60
38325;DHT22;24126;52.672;13.622;2023-04-25T05:01:58;13.90;63.60
38325;DHT22;24126;52.672;13.622;2023-04-25T05:04:57;13.90;63.80
38325;DHT22;24126;52.672;13.622;2023-04-25T05:07:35;14.00;63.80
38325;DHT22;24126;52.672;13.622;2023-04-25T05:10:07;14.00;63.60
38325;DHT22;24126;52.672;13.622;2023-04-25T05:13:04;14.00;63.60
38325;DHT22;24126;52.672;13.622;2023-04-25T05:15:42;14.00;63.70
38325;DHT22;24126;52.672;13.622;2023-04-25T05:18:29;14.00;63.70
38325;DHT22;24126;52.672;13.622;2023-04-25T05:21:22;14.00;63.40
38325;DHT22;24126;52.672;13.622;2023-04-25T05:24:05;14.00;63.60
38325;DHT22;24126;52.672;13.622;2023-04-25T05:26:32;14.00;63.70
38325;DHT22;24126;52.672;13.622;2023-04-25T05:29:18;14.00;63.70
38325;DHT22;24126;52.672;13.622;2023-04-25T05:32:05;14.00;63.60
38325;DHT22;24126;52.672;13.622;2023-04-25T05:34:33;14.00;63.80
38325;DHT22;24126;52.672;13.622;2023-04-25T05:37:04;14.00;63.80
38325;DHT22;24126;52.672;13.622;2023-04-25T05:39:35;14.00;63.90
38325;DHT22;24126;52.672;13.622;2023-04-25T05:42:20;14.00;63.90
38325;DHT22;24126;52.672;13.622;2023-04-25T05:45:06;14.00;63.70
38325;DHT22;24126;52.672;13.622;2023-04-25T05:47:51;14.00;63.80
38325;DHT22;24126;52.672;13.622;2023-04-25T05:50:37;14.00;63.80
38325;DHT22;24126;52.672;13.622;2023-04-25T05:53:18;14.00;63.80
38325;DHT22;24126;52.672;13.622;2023-04-25T05:55:52;14.00;63.80
38325;DHT22;24126;52.672;13.622;2023-04-25T05:58:25;14.00;64.00
38325;DHT22;24126;52.672;13.622;2023-04-25T06:00:53;14.00;64.10
38325;DHT22;24126;52.672;13.622;2023-04-25T06:03:20;14.00;64.10
38325;DHT22;24126;52.672;13.622;2023-04-25T06:05:48;14.00;64.10
38325;DHT22;24126;52.672;13.622;2023-04-25T06:08:16;14.10;64.30
38325;DHT22;24126;52.672;13.622;2023-04-25T06:10:43;14.00;64.30
38325;DHT22;24126;52.672;13.622;2023-04-25T06:13:10;14.10;64.20
38325;DHT22;24126;52.672;13.622;2023-04-25T06:15:37;14.10;64.30
38325;DHT22;24126;52.672;13.622;2023-04-25T06:18:04;14.10;64.40
38325;DHT22;24126;52.672;13.622;2023-04-25T06:20:33;14.10;64.20
38325;DHT22;24126;52.672;13.622;2023-04-25T06:23:00;14.10;64.00
38325;DHT22;24126;52.672;13.622;2023-04-25T06:25:48;14.10;64.10
38325;DHT22;24126;52.672;13.622;2023-04-25T06:28:15;14.10;64.30
38325;DHT22;24126;52.672;13.622;2023-04-25T06:30:43;14.10;64.30
38325;DHT22;24126;52.672;13.622;2023-04-25T06:33:14;14.10;64.30
38325;DHT22;24126;52.672;13.622;2023-04-25T06:35:41;14.10;64.40
38325;DHT22;24126;52.672;13.622;2023-04-25T06:38:12;14.10;64.40
38325;DHT22;24126;52.672;13.622;2023-04-25T06:40:41;14.10;64.30
38325;DHT22;24126;52.672;13.622;2023-04-25T06:43:09;14.10;64.50
38325;DHT22;24126;52.672;13.622;2023-04-25T06:45:49;14.10;64.40
38325;DHT22;24126;52.672;13.622;2023-04-25T06:48:18;14.10;64.60
38325;DHT22;24126;52.672;13.622;2023-04-25T06:50:45;14.10;64.70
38325;DHT22;24126;52.672;13.622;2023-04-25T06:53:13;14.10;64.60
38325;DHT22;24126;52.672;13.622;2023-04-25T06:55:42;14.10;64.80
38325;DHT22;24126;52.672;13.622;2023-04-25T06:58:20;14.10;64.80
38325;DHT22;24126;52.672;13.622;2023-04-25T07:00:56;14.10;64.80
38325;DHT22;24126;52.672;13.622;2023-04-25T07:03:25;14.10;64.90
38325;DHT22;24126;52.672;13.622;2023-04-25T07:05:57;14.20;64.90
38325;DHT22;24126;52.672;13.622;2023-04-25T07:08:25;14.10;64.90
38325;DHT22;24126;52.672;13.622;2023-04-25T07:10:52;14.20;65.00
38325;DHT22;24126;52.672;13.622;2023-04-25T07:13:19;14.20;64.80
38325;DHT22;24126;52.672;13.622;2023-04-25T07:15:46;14.20;64.90
38325;DHT22;24126;52.672;13.622;2023-04-25T07:18:15;14.20;64.80
38325;DHT22;24126;52.672;13.622;2023-04-25T07:20:42;14.10;65.00
38325;DHT22;24126;52.672;13.622;2023-04-25T07:23:09;14.10;65.10
38325;DHT22;24126;52.672;13.622;2023-04-25T07:25:36;14.10;65.10
38325;DHT22;24126;52.672;13.622;2023-04-25T07:28:03;14.10;65.10
38325;DHT22;24126;52.672;13.622;2023-04-25T07:30:30;14.20;65.20
38325;DHT22;24126;52.672;13.622;2023-04-25T07:32:57;14.20;65.30
38325;DHT22;24126;52.672;13.622;2023-04-25T07:35:25;14.20;65.30
38325;DHT22;24126;52.672;13.622;2023-04-25T07:37:51;14.30;65.30
38325;DHT22;24126;52.672;13.622;2023-04-25T07:40:19;14.30;65.10
38325;DHT22;24126;52.672;13.622;2023-04-25T07:42:51;14.30;64.80
38325;DHT22;24126;52.672;13.622;2023-04-25T07:45:25;14.30;64.80
38325;DHT22;24126;52.672;13.622;2023-04-25T07:47:53;14.30;64.90
38325;DHT22;24126;52.672;13.622;2023-04-25T07:50:21;14.30;65.00
38325;DHT22;24126;52.672;13.622;2023-04-25T07:52:48;14.30;65.00
38325;DHT22;24126;52.672;13.622;2023-04-25T07:55:22;14.30;64.90
38325;DHT22;24126;52.672;13.622;2023-04-25T07:58:09;14.30;64.90
38325;DHT22;24126;52.672;13.622;2023-04-25T08:00:39;14.30;64.80
38325;DHT22;24126;52.672;13.622;2023-04-25T08:03:24;14.30;64.80
38325;DHT22;24126;52.672;13.622;2023-04-25T08:05:53;14.40;64.50
38325;DHT22;24126;52.672;13.622;2023-04-25T08:08:20;14.30;64.20
38325;DHT22;24126;52.672;13.622;2023-04-25T08:10:47;14.30;64.20
38325;DHT22;24126;52.672;13.622;2023-04-25T08:13:16;14.30;64.80
38325;DHT22;24126;52.672;13.622;2023-04-25T08:15:44;14.40;64.70
38325;DHT22;24126;52.672;13.622;2023-04-25T08:18:11;14.50;64.50
38325;DHT22;24126;52.672;13.622;2023-04-25T08:20:38;14.60;64.10
38325;DHT22;24126;52.672;13.622;2023-04-25T08:23:07;14.70;63.80
38325;DHT22;24126;52.672;13.622;2023-04-25T08:26:00;14.70;63.50
38325;DHT22;24126;52.672;13.622;2023-04-25T08:28:29;14.80;63.40
38325;DHT22;24126;52.672;13.622;2023-04-25T08:30:58;14.80;62.60
38325;DHT22;24126;52.672;13.622;2023-04-25T08:33:32;14.90;62.10
38325;DHT22;24126;52.672;13.622;2023-04-25T08:36:07;14.90;62.10
38325;DHT22;24126;52.672;13.622;2023-04-25T08:38:34;15.00;62.10
38325;DHT22;24126;52.672;13.622;2023-04-25T08:41:04;15.20;61.90
38325;DHT22;24126;52.672;13.622;2023-04-25T08:43:32;15.30;61.40
38325;DHT22;24126;52.672;13.622;2023-04-25T08:46:00;15.50;60.70
38325;DHT22;24126;52.672;13.622;2023-04-25T08:48:35;15.60;60.10
38325;DHT22;24126;52.672;13.622;2023-04-25T08:51:04;15.70;59.60
38325;DHT22;24126;52.672;13.622;2023-04-25T08:53:32;15.80;59.20
38325;DHT22;24126;52.672;13.622;2023-04-25T08:56:01;15.90;58.10
38325;DHT22;24126;52.672;13.622;2023-04-25T08:58:28;16.00;57.40
38325;DHT22;24126;52.672;13.622;2023-04-25T09:00:55;16.30;57.90
38325;DHT22;24126;52.672;13.622;2023-04-25T09:03:26;16.50;56.80
38325;DHT22;24126;52.672;13.622;2023-04-25T09:05:53;16.70;55.80
38325;DHT22;24126;52.672;13.622;2023-04-25T09:08:21;16.80;55.40
38325;DHT22;24126;52.672;13.622;2023-04-25T09:10:48;17.00;54.80
38325;DHT22;24126;52.672;13.622;2023-04-25T09:13:20;17.40;54.20
38325;DHT22;24126;52.672;13.622;2023-04-25T09:16:10;17.70;53.10
38325;DHT22;24126;52.672;13.622;2023-04-25T09:19:00;18.20;52.40
38325;DHT22;24126;52.672;13.622;2023-04-25T09:21:27;18.60;50.40
38325;DHT22;24126;52.672;13.622;2023-04-25T09:23:56;18.70;49.30
38325;DHT22;24126;52.672;13.622;2023-04-25T09:26:25;18.70;49.30
38325;DHT22;24126;52.672;13.622;2023-04-25T09:29:05;18.70;49.20
38325;DHT22;24126;52.672;13.622;2023-04-25T09:31:35;18.60;49.50
38325;DHT22;24126;52.672;13.622;2023-04-25T09:34:04;18.60;48.80
38325;DHT22;24126;52.672;13.622;2023-04-25T09:36:40;18.50;48.80
38325;DHT22;24126;52.672;13.622;2023-04-25T09:39:37;18.60;48.50
38325;DHT22;24126;52.672;13.622;2023-04-25T09:42:11;18.70;48.70
38325;DHT22;24126;52.672;13.622;2023-04-25T09:44:41;18.80;48.10
38325;DHT22;24126;52.672;13.622;2023-04-25T09:47:09;18.80;48.20
38325;DHT22;24126;52.672;13.622;2023-04-25T09:49:38;18.90;47.60
38325;DHT22;24126;52.672;13.622;2023-04-25T09:52:12;18.80;47.40
38325;DHT22;24126;52.672;13.622;2023-04-25T09:54:48;18.70;48.00
38325;DHT22;24126;52.672;13.622;2023-04-25T09:57:22;18.70;47.40
38325;DHT22;24126;52.672;13.622;2023-04-25T09:59:54;18.60;47.80
38325;DHT22;24126;52.672;13.622;2023-04-25T10:02:23;18.40;47.30
38325;DHT22;24126;52.672;13.622;2023-04-25T10:04:54;18.30;47.50
38325;DHT22;24126;52.672;13.622;2023-04-25T10:07:30;18.10;47.30
38325;DHT22;24126;52.672;13.622;2023-04-25T10:10:01;17.90;47.20
38325;DHT22;24126;52.672;13.622;2023-04-25T10:12:30;17.80;46.70
38325;DHT22;24126;52.672;13.622;2023-04-25T10:14:58;17.80;47.80
38325;DHT22;24126;52.672;13.622;2023-04-25T10:17:25;18.00;48.10
38325;DHT22;24126;52.672;13.622;2023-04-25T10:19:54;18.20;45.80
38325;DHT22;24126;52.672;13.622;2023-04-25T10:22:37;18.30;45.00
38325;DHT22;24126;52.672;13.622;2023-04-25T10:25:05;18.40;44.90
38325;DHT22;24126;52.672;13.622;2023-04-25T10:27:34;18.50;45.00
38325;DHT22;24126;52.672;13.622;2023-04-25T10:30:02;18.50;44.60
38325;DHT22;24126;52.672;13.622;2023-04-25T10:32:31;18.50;44.80
38325;DHT22;24126;52.672;13.622;2023-04-25T10:35:02;18.40;44.70
38325;DHT22;24126;52.672;13.622;2023-04-25T10:37:36;18.40;44.60
38325;DHT22;24126;52.672;13.622;2023-04-25T10:40:09;18.40;44.30
38325;DHT22;24126;52.672;13.622;2023-04-25T10:42:36;18.30;44.10
38325;DHT22;24126;52.672;13.622;2023-04-25T10:45:07;18.20;43.80
38325;DHT22;24126;52.672;13.622;2023-04-25T10:47:34;18.20;43.90
38325;DHT22;24126;52.672;13.622;2023-04-25T10:50:08;18.20;44.20
38325;DHT22;24126;52.672;13.622;2023-04-25T10:52:36;18.30;44.00
38325;DHT22;24126;52.672;13.622;2023-04-25T10:55:05;18.30;44.70
38325;DHT22;24126;52.672;13.622;2023-04-25T10:57:42;18.40;44.60
38325;DHT22;24126;52.672;13.622;2023-04-25T11:00:18;18.50;43.80
38325;DHT22;24126;52.672;13.622;2023-04-25T11:02:47;18.60;43.80
38325;DHT22;24126;52.672;13.622;2023-04-25T11:05:29;18.60;44.50
38325;DHT22;24126;52.672;13.622;2023-04-25T11:07:56;18.70;44.40
38325;DHT22;24126;52.672;13.622;2023-04-25T11:10:28;18.70;44.30
38325;DHT22;24126;52.672;13.622;2023-04-25T11:12:56;18.70;42.80
38325;DHT22;24126;52.672;13.622;2023-04-25T11:15:24;18.50;42.40
38325;DHT22;24126;52.672;13.622;2023-04-25T11:17:52;18.30;41.50
38325;DHT22;24126;52.672;13.622;2023-04-25T11:20:19;18.10;41.90
38325;DHT22;24126;52.672;13.622;2023-04-25T11:22:47;17.90;42.80
38325;DHT22;24126;52.672;13.622;2023-04-25T11:25:14;17.70;42.40
38325;DHT22;24126;52.672;13.622;2023-04-25T11:27:49;17.60;42.70
38325;DHT22;24126;52.672;13.622;2023-04-25T11:30:16;17.40;42.60
38325;DHT22;24126;52.672;13.622;2023-04-25T11:32:43;17.30;42.90
38325;DHT22;24126;52.672;13.622;2023-04-25T11:35:11;17.30;42.80
38325;DHT22;24126;52.672;13.622;2023-04-25T11:37:39;17.20;42.70
38325;DHT22;24126;52.672;13.622;2023-04-25T11:40:06;17.20;42.60
38325;DHT22;24126;52.672;13.622;2023-04-25T11:42:38;17.10;42.70
38325;DHT22;24126;52.672;13.622;2023-04-25T11:45:06;17.10;42.40
38325;DHT22;24126;52.672;13.622;2023-04-25T11:47:33;17.20;42.90
38325;DHT22;24126;52.672;13.622;2023-04-25T11:50:01;17.10;42.30
38325;DHT22;24126;52.672;13.622;2023-04-25T11:52:39;17.20;42.50
38325;DHT22;24126;52.672;13.622;2023-04-25T11:55:07;17.20;41.80
38325;DHT22;24126;52.672;13.622;2023-04-25T11:57:34;17.30;41.70
38325;DHT22;24126;52.672;13.622;2023-04-25T12:00:06;17.40;42.20
38325;DHT22;24126;52.672;13.622;2023-04-25T12:02:41;17.50;42.10
38325;DHT22;24126;52.672;13.622;2023-04-25T12:05:13;17.70;42.00
38325;DHT22;24126;52.672;13.622;2023-04-25T12:07:41;17.80;42.20
38325;DHT22;24126;52.672;13.622;2023-04-25T12:10:09;17.90;41.90
38325;DHT22;24126;52.672;13.622;2023-04-25T12:12:36;18.00;42.60
38325;DHT22;24126;52.672;13.622;2023-04-25T12:17:41;18.40;41.60
38325;DHT22;24126;52.672;13.622;2023-04-25T12:20:09;18.40;40.80
38325;DHT22;24126;52.672;13.622;2023-04-25T12:22:36;18.30;40.80
38325;DHT22;24126;52.672;13.622;2023-04-25T12:25:04;18.30;40.70
38325;DHT22;24126;52.672;13.622;2023-04-25T12:27:31;18.20;40.40
38325;DHT22;24126;52.672;13.622;2023-04-25T12:29:59;18.10;40.40
38325;DHT22;24126;52.672;13.622;2023-04-25T12:32:27;18.10;40.30
38325;DHT22;24126;52.672;13.622;2023-04-25T12:34:54;17.90;40.80
38325;DHT22;24126;52.672;13.622;2023-04-25T12:37:21;17.90;41.40
38325;DHT22;24126;52.672;13.622;2023-04-25T12:39:48;17.80;40.80
38325;DHT22;24126;52.672;13.622;2023-04-25T12:42:16;17.70;41.00
38325;DHT22;24126;52.672;13.622;2023-04-25T12:44:43;17.70;41.10
38325;DHT22;24126;52.672;13.622;2023-04-25T12:47:10;17.70;41.60
38325;DHT22;24126;52.672;13.622;2023-04-25T12:49:37;17.70;41.60
38325;DHT22;24126;52.672;13.622;2023-04-25T12:52:04;17.80;41.30
38325;DHT22;24126;52.672;13.622;2023-04-25T12:54:31;17.90;40.90
38325;DHT22;24126;52.672;13.622;2023-04-25T12:56:58;17.90;40.40
38325;DHT22;24126;52.672;13.622;2023-04-25T12:59:27;17.90;40.90
38325;DHT22;24126;52.672;13.622;2023-04-25T13:01:54;17.90;41.00
38325;DHT22;24126;52.672;13.622;2023-04-25T13:04:21;17.90;40.90
38325;DHT22;24126;52.672;13.622;2023-04-25T13:06:48;17.90;41.30
38325;DHT22;24126;52.672;13.622;2023-04-25T13:09:15;17.90;41.80
38325;DHT22;24126;52.672;13.622;2023-04-25T13:11:42;17.90;41.00
38325;DHT22;24126;52.672;13.622;2023-04-25T13:14:09;17.90;41.10
38325;DHT22;24126;52.672;13.622;2023-04-25T13:16:36;17.90;41.10
38325;DHT22;24126;52.672;13.622;2023-04-25T13:19:03;17.90;40.80
38325;DHT22;24126;52.672;13.622;2023-04-25T13:21:31;17.90;40.60
38325;DHT22;24126;52.672;13.622;2023-04-25T13:23:58;17.70;40.40
38325;DHT22;24126;52.672;13.622;2023-04-25T13:26:25;17.70;40.70
38325;DHT22;24126;52.672;13.622;2023-04-25T13:28:52;17.60;41.20
38325;DHT22;24126;52.672;13.622;2023-04-25T13:31:19;17.50;41.20
38325;DHT22;24126;52.672;13.622;2023-04-25T13:33:46;17.40;41.50
38325;DHT22;24126;52.672;13.622;2023-04-25T13:36:14;17.30;42.80
38325;DHT22;24126;52.672;13.622;2023-04-25T13:38:41;17.20;42.10
38325;DHT22;24126;52.672;13.622;2023-04-25T13:41:09;17.10;42.50
38325;DHT22;24126;52.672;13.622;2023-04-25T13:43:37;17.00;42.90
38325;DHT22;24126;52.672;13.622;2023-04-25T13:46:04;16.90;42.60
38325;DHT22;24126;52.672;13.622;2023-04-25T13:48:31;16.90;42.80
38325;DHT22;24126;52.672;13.622;2023-04-25T13:50:58;16.80;42.90
38325;DHT22;24126;52.672;13.622;2023-04-25T13:53:25;16.70;43.40
38325;DHT22;24126;52.672;13.622;2023-04-25T13:55:52;16.60;43.30
38325;DHT22;24126;52.672;13.622;2023-04-25T13:58:19;16.60;43.50
38325;DHT22;24126;52.672;13.622;2023-04-25T14:00:46;16.50;43.80
38325;DHT22;24126;52.672;13.622;2023-04-25T14:03:13;16.50;44.10
38325;DHT22;24126;52.672;13.622;2023-04-25T14:05:40;16.50;43.90
38325;DHT22;24126;52.672;13.622;2023-04-25T14:08:08;16.50;44.00
38325;DHT22;24126;52.672;13.622;2023-04-25T14:10:36;16.40;44.10
38325;DHT22;24126;52.672;13.622;2023-04-25T14:13:03;16.30;43.80
38325;DHT22;24126;52.672;13.622;2023-04-25T14:15:33;16.30;44.10
38325;DHT22;24126;52.672;13.622;2023-04-25T14:18:01;16.30;44.30
38325;DHT22;24126;52.672;13.622;2023-04-25T14:20:28;16.20;44.50
38325;DHT22;24126;52.672;13.622;2023-04-25T14:22:55;16.20;44.60
38325;DHT22;24126;52.672;13.622;2023-04-25T14:25:24;16.20;44.70
38325;DHT22;24126;52.672;13.622;2023-04-25T14:27:51;16.30;45.40
38325;DHT22;24126;52.672;13.622;2023-04-25T14:30:18;16.30;45.40
38325;DHT22;24126;52.672;13.622;2023-04-25T14:32:45;16.40;45.50
38325;DHT22;24126;52.672;13.622;2023-04-25T14:35:13;16.40;45.40
38325;DHT22;24126;52.672;13.622;2023-04-25T14:37:40;16.50;45.20
38325;DHT22;24126;52.672;13.622;2023-04-25T14:40:07;16.60;44.70
38325;DHT22;24126;52.672;13.622;2023-04-25T14:42:36;16.60;44.50
38325;DHT22;24126;52.672;13.622;2023-04-25T14:45:04;16.60;44.70
38325;DHT22;24126;52.672;13.622;2023-04-25T14:47:32;16.50;44.80
38325;DHT22;24126;52.672;13.622;2023-04-25T14:49:59;16.50;45.20
38325;DHT22;24126;52.672;13.622;2023-04-25T14:52:27;16.50;45.20
38325;DHT22;24126;52.672;13.622;2023-04-25T14:54:54;16.50;44.90
38325;DHT22;24126;52.672;13.622;2023-04-25T14:57:21;16.40;45.00
38325;DHT22;24126;52.672;13.622;2023-04-25T14:59:48;16.40;45.10
38325;DHT22;24126;52.672;13.622;2023-04-25T15:02:15;16.40;45.70
38325;DHT22;24126;52.672;13.622;2023-04-25T15:04:42;16.40;45.60
38325;DHT22;24126;52.672;13.622;2023-04-25T15:07:09;16.40;45.90
38325;DHT22;24126;52.672;13.622;2023-04-25T15:09:36;16.40;45.80
38325;DHT22;24126;52.672;13.622;2023-04-25T15:12:04;16.40;46.00
38325;DHT22;24126;52.672;13.622;2023-04-25T15:14:31;16.30;45.80
38325;DHT22;24126;52.672;13.622;2023-04-25T15:17:00;16.30;45.80
38325;DHT22;24126;52.672;13.622;2023-04-25T15:19:27;16.30;45.70
38325;DHT22;24126;52.672;13.622;2023-04-25T15:21:54;16.20;45.50
38325;DHT22;24126;52.672;13.622;2023-04-25T15:24:21;16.20;45.70
38325;DHT22;24126;52.672;13.622;2023-04-25T15:26:48;16.20;45.90
38325;DHT22;24126;52.672;13.622;2023-04-25T15:29:15;16.20;46.40
38325;DHT22;24126;52.672;13.622;2023-04-25T15:31:42;16.20;45.90
38325;DHT22;24126;52.672;13.622;2023-04-25T15:34:09;16.20;46.50